Al Khuwair — C6VM6 — position and weather

sailwx.info

Track history (hours):
 
Tides and Currents Weather Stations Pressure Air Temp Water Temp Dewpoint Dewpoint Depression Visibility Wind Speed Wind Dir Waves Ship Positions

Al Khuwair

Last reported at 2015-Jul-28 03:33 UTC. Time now 2015-Aug-03 00:25 UTC.
Position N 02°53' E 100°57'.

Length 315 m; draft 9.3 m.

Type: Ship (hazmat cat A). MMSI: 311000140.

Date/timePositionNaut miles runAvg speedWind from/ knotsBaromVisibWave heightAir tempDewpointWater temp
2015-Jul-28 03:33N 02°53' E 100°57'3216.2
2015-Jul-28 01:33N 02°36' E 101°25'166 5.1
2015-Jul-26 17:04N 01°11' E 103°47'2 4.7
2015-Jul-26 16:33N 01°11' E 103°50'8 7.7
2015-Jul-26 15:34N 01°14' E 103°57'9 8.4
2015-Jul-26 14:31N 01°16' E 104°05'  
2015-Jul-20 05:33N 35°05' E 139°43'1312.9
2015-Jul-20 04:33N 35°18' E 139°44'7 6.7
2015-Jul-20 03:34N 35°24' E 139°48'3 0.1
2015-Jul-18 21:33N 35°21' E 139°49'3 3.2
2015-Jul-18 20:33N 35°24' E 139°47'8 8.4
2015-Jul-18 19:34N 35°15' E 139°47'10 9.5
2015-Jul-18 18:33N 35°06' E 139°45'7 6.9
2015-Jul-18 17:33N 34°60' E 139°42'4 0.3
2015-Jul-18 05:33N 35°03' E 139°42'1211.7
2015-Jul-18 04:33N 35°14' E 139°46'  
Track history (hours):
 
Tides and Currents Weather Stations Pressure Air Temp Water Temp Dewpoint Dewpoint Depression Visibility Wind Speed Wind Dir Waves Ship Positions

Al Khuwair

Last reported at 2015-Jul-28 03:33 UTC. Time now 2015-Aug-03 00:25 UTC.
Position N 02°53' E 100°57'.

Length 315 m; draft 9.3 m.

Type: Ship (hazmat cat A). MMSI: 311000140.

Date/timePositionNaut miles runAvg speedWind from/ knotsBaromVisibWave heightAir tempDewpointWater temp
2015-Jul-28 03:33N 02°53' E 100°57'3216.2
2015-Jul-28 01:33N 02°36' E 101°25'166 5.1
2015-Jul-26 17:04N 01°11' E 103°47'2 4.7
2015-Jul-26 16:33N 01°11' E 103°50'8 7.7
2015-Jul-26 15:34N 01°14' E 103°57'9 8.4
2015-Jul-26 14:31N 01°16' E 104°05'  
2015-Jul-20 05:33N 35°05' E 139°43'1312.9
2015-Jul-20 04:33N 35°18' E 139°44'7 6.7
2015-Jul-20 03:34N 35°24' E 139°48'3 0.1
2015-Jul-18 21:33N 35°21' E 139°49'3 3.2
2015-Jul-18 20:33N 35°24' E 139°47'8 8.4
2015-Jul-18 19:34N 35°15' E 139°47'10 9.5
2015-Jul-18 18:33N 35°06' E 139°45'7 6.9
2015-Jul-18 17:33N 34°60' E 139°42'4 0.3
2015-Jul-18 05:33N 35°03' E 139°42'1211.7
2015-Jul-18 04:33N 35°14' E 139°46'  

Dump ship's entire track history